sensor_id;sensor_type;location;lat;lon;timestamp;P1;durP1;ratioP1;P2;durP2;ratioP2
69910;SDS011;63555;49.920;17.868;2023-03-23T00:02:14;7.43;;;4.15;;
69910;SDS011;63555;49.920;17.868;2023-03-23T00:07:16;10.45;;;4.22;;
69910;SDS011;63555;49.920;17.868;2023-03-23T00:12:25;7.85;;;4.40;;
69910;SDS011;63555;49.920;17.868;2023-03-23T00:17:33;7.67;;;4.10;;
69910;SDS011;63555;49.920;17.868;2023-03-23T00:22:34;8.68;;;5.05;;
69910;SDS011;63555;49.920;17.868;2023-03-23T00:27:37;10.95;;;4.80;;
69910;SDS011;63555;49.920;17.868;2023-03-23T00:32:38;9.88;;;4.70;;
69910;SDS011;63555;49.920;17.868;2023-03-23T00:37:38;9.35;;;5.30;;
69910;SDS011;63555;49.920;17.868;2023-03-23T00:42:39;8.57;;;4.47;;
69910;SDS011;63555;49.920;17.868;2023-03-23T00:47:39;8.10;;;4.67;;
69910;SDS011;63555;49.920;17.868;2023-03-23T00:52:41;10.23;;;4.50;;
69910;SDS011;63555;49.920;17.868;2023-03-23T00:57:41;8.77;;;4.10;;
69910;SDS011;63555;49.920;17.868;2023-03-23T01:02:42;9.53;;;5.00;;
69910;SDS011;63555;49.920;17.868;2023-03-23T01:07:44;7.95;;;4.82;;
69910;SDS011;63555;49.920;17.868;2023-03-23T01:12:45;7.70;;;4.57;;
69910;SDS011;63555;49.920;17.868;2023-03-23T01:17:46;8.70;;;5.00;;
69910;SDS011;63555;49.920;17.868;2023-03-23T01:22:47;7.77;;;4.23;;
69910;SDS011;63555;49.920;17.868;2023-03-23T01:27:47;9.17;;;4.47;;
69910;SDS011;63555;49.920;17.868;2023-03-23T01:32:47;8.73;;;5.07;;
69910;SDS011;63555;49.920;17.868;2023-03-23T01:37:48;11.90;;;4.83;;
69910;SDS011;63555;49.920;17.868;2023-03-23T01:42:48;9.75;;;4.90;;
69910;SDS011;63555;49.920;17.868;2023-03-23T01:47:50;8.68;;;5.00;;
69910;SDS011;63555;49.920;17.868;2023-03-23T01:53:12;8.83;;;4.63;;
69910;SDS011;63555;49.920;17.868;2023-03-23T01:58:13;9.50;;;4.47;;
69910;SDS011;63555;49.920;17.868;2023-03-23T02:03:13;8.63;;;4.70;;
69910;SDS011;63555;49.920;17.868;2023-03-23T02:08:16;8.37;;;4.43;;
69910;SDS011;63555;49.920;17.868;2023-03-23T02:13:18;10.13;;;5.03;;
69910;SDS011;63555;49.920;17.868;2023-03-23T02:34:12;7.38;;;4.13;;
69910;SDS011;63555;49.920;17.868;2023-03-23T02:39:21;8.65;;;4.85;;
69910;SDS011;63555;49.920;17.868;2023-03-23T02:44:26;10.63;;;4.30;;
69910;SDS011;63555;49.920;17.868;2023-03-23T02:49:29;8.27;;;4.50;;
69910;SDS011;63555;49.920;17.868;2023-03-23T02:54:34;8.80;;;4.33;;
69910;SDS011;63555;49.920;17.868;2023-03-23T02:59:35;10.15;;;4.70;;
69910;SDS011;63555;49.920;17.868;2023-03-23T03:04:35;8.63;;;4.10;;
69910;SDS011;63555;49.920;17.868;2023-03-23T03:14:57;8.63;;;4.43;;
69910;SDS011;63555;49.920;17.868;2023-03-23T03:20:07;8.82;;;4.32;;
69910;SDS011;63555;49.920;17.868;2023-03-23T03:25:11;8.67;;;4.63;;
69910;SDS011;63555;49.920;17.868;2023-03-23T03:30:13;8.15;;;4.72;;
69910;SDS011;63555;49.920;17.868;2023-03-23T03:35:17;10.48;;;4.80;;
69910;SDS011;63555;49.920;17.868;2023-03-23T03:40:19;8.20;;;5.05;;
69910;SDS011;63555;49.920;17.868;2023-03-23T03:45:21;8.35;;;4.65;;
69910;SDS011;63555;49.920;17.868;2023-03-23T03:50:22;9.03;;;4.77;;
69910;SDS011;63555;49.920;17.868;2023-03-23T03:55:23;7.77;;;4.77;;
69910;SDS011;63555;49.920;17.868;2023-03-23T04:00:24;8.87;;;4.80;;
69910;SDS011;63555;49.920;17.868;2023-03-23T04:05:24;9.50;;;4.90;;
69910;SDS011;63555;49.920;17.868;2023-03-23T04:10:25;9.03;;;4.80;;
69910;SDS011;63555;49.920;17.868;2023-03-23T04:15:26;9.00;;;4.60;;
69910;SDS011;63555;49.920;17.868;2023-03-23T04:20:26;8.83;;;4.73;;
69910;SDS011;63555;49.920;17.868;2023-03-23T04:25:27;8.23;;;4.70;;
69910;SDS011;63555;49.920;17.868;2023-03-23T04:30:28;8.97;;;5.10;;
69910;SDS011;63555;49.920;17.868;2023-03-23T04:35:29;8.88;;;4.88;;
69910;SDS011;63555;49.920;17.868;2023-03-23T04:40:30;10.83;;;4.80;;
69910;SDS011;63555;49.920;17.868;2023-03-23T04:45:30;9.77;;;5.20;;
69910;SDS011;63555;49.920;17.868;2023-03-23T04:50:32;8.45;;;4.78;;
69910;SDS011;63555;49.920;17.868;2023-03-23T04:55:34;12.73;;;5.53;;
69910;SDS011;63555;49.920;17.868;2023-03-23T05:00:38;14.40;;;5.32;;
69910;SDS011;63555;49.920;17.868;2023-03-23T05:05:39;8.43;;;4.70;;
69910;SDS011;63555;49.920;17.868;2023-03-23T05:10:40;8.57;;;4.70;;
69910;SDS011;63555;49.920;17.868;2023-03-23T05:15:40;11.80;;;4.65;;
69910;SDS011;63555;49.920;17.868;2023-03-23T05:20:41;11.63;;;5.07;;
69910;SDS011;63555;49.920;17.868;2023-03-23T05:25:42;10.40;;;4.95;;
69910;SDS011;63555;49.920;17.868;2023-03-23T05:30:43;7.93;;;4.67;;
69910;SDS011;63555;49.920;17.868;2023-03-23T05:35:45;10.10;;;4.33;;
69910;SDS011;63555;49.920;17.868;2023-03-23T05:40:47;7.65;;;4.43;;
69910;SDS011;63555;49.920;17.868;2023-03-23T05:45:48;7.70;;;4.50;;
69910;SDS011;63555;49.920;17.868;2023-03-23T05:50:49;8.27;;;4.63;;
69910;SDS011;63555;49.920;17.868;2023-03-23T05:55:50;7.87;;;4.43;;
69910;SDS011;63555;49.920;17.868;2023-03-23T06:00:51;9.00;;;4.80;;
69910;SDS011;63555;49.920;17.868;2023-03-23T06:05:51;6.47;;;3.80;;
69910;SDS011;63555;49.920;17.868;2023-03-23T06:10:52;7.50;;;4.37;;
69910;SDS011;63555;49.920;17.868;2023-03-23T06:15:54;8.17;;;4.10;;
69910;SDS011;63555;49.920;17.868;2023-03-23T06:20:59;8.00;;;4.20;;
69910;SDS011;63555;49.920;17.868;2023-03-23T06:26:01;6.90;;;4.10;;
69910;SDS011;63555;49.920;17.868;2023-03-23T06:31:04;8.38;;;4.20;;
69910;SDS011;63555;49.920;17.868;2023-03-23T06:36:06;7.82;;;4.60;;
69910;SDS011;63555;49.920;17.868;2023-03-23T06:41:07;7.40;;;3.85;;
69910;SDS011;63555;49.920;17.868;2023-03-23T06:46:08;9.35;;;4.57;;
69910;SDS011;63555;49.920;17.868;2023-03-23T06:51:09;7.75;;;4.32;;
69910;SDS011;63555;49.920;17.868;2023-03-23T06:56:10;7.43;;;3.93;;
69910;SDS011;63555;49.920;17.868;2023-03-23T07:01:11;7.93;;;3.78;;
69910;SDS011;63555;49.920;17.868;2023-03-23T07:06:12;8.77;;;4.10;;
69910;SDS011;63555;49.920;17.868;2023-03-23T07:11:13;7.47;;;4.10;;
69910;SDS011;63555;49.920;17.868;2023-03-23T07:16:13;8.27;;;4.20;;
69910;SDS011;63555;49.920;17.868;2023-03-23T07:21:14;9.23;;;4.23;;
69910;SDS011;63555;49.920;17.868;2023-03-23T07:26:14;7.55;;;4.00;;
69910;SDS011;63555;49.920;17.868;2023-03-23T07:31:14;7.00;;;4.20;;
69910;SDS011;63555;49.920;17.868;2023-03-23T07:36:15;9.23;;;4.30;;
69910;SDS011;63555;49.920;17.868;2023-03-23T07:41:15;6.57;;;4.07;;
69910;SDS011;63555;49.920;17.868;2023-03-23T07:46:15;9.23;;;4.57;;
69910;SDS011;63555;49.920;17.868;2023-03-23T07:51:16;7.43;;;4.20;;
69910;SDS011;63555;49.920;17.868;2023-03-23T07:56:16;8.10;;;3.88;;
69910;SDS011;63555;49.920;17.868;2023-03-23T08:01:19;7.00;;;4.10;;
69910;SDS011;63555;49.920;17.868;2023-03-23T08:06:20;11.73;;;4.20;;
69910;SDS011;63555;49.920;17.868;2023-03-23T08:11:21;7.63;;;3.97;;
69910;SDS011;63555;49.920;17.868;2023-03-23T08:16:22;7.20;;;4.03;;
69910;SDS011;63555;49.920;17.868;2023-03-23T08:21:22;8.23;;;3.93;;
69910;SDS011;63555;49.920;17.868;2023-03-23T08:26:23;6.73;;;3.50;;
69910;SDS011;63555;49.920;17.868;2023-03-23T08:31:23;9.03;;;3.93;;
69910;SDS011;63555;49.920;17.868;2023-03-23T08:36:24;7.40;;;3.95;;
69910;SDS011;63555;49.920;17.868;2023-03-23T08:41:25;7.83;;;4.10;;
69910;SDS011;63555;49.920;17.868;2023-03-23T08:46:25;10.00;;;3.30;;
69910;SDS011;63555;49.920;17.868;2023-03-23T08:51:27;9.18;;;3.50;;
69910;SDS011;63555;49.920;17.868;2023-03-23T08:56:27;6.03;;;3.80;;
69910;SDS011;63555;49.920;17.868;2023-03-23T09:01:28;8.90;;;4.03;;
69910;SDS011;63555;49.920;17.868;2023-03-23T09:06:28;8.17;;;4.00;;
69910;SDS011;63555;49.920;17.868;2023-03-23T09:11:28;8.03;;;3.63;;
69910;SDS011;63555;49.920;17.868;2023-03-23T09:16:29;11.00;;;3.93;;
69910;SDS011;63555;49.920;17.868;2023-03-23T09:21:30;11.47;;;3.93;;
69910;SDS011;63555;49.920;17.868;2023-03-23T09:26:30;10.73;;;4.00;;
69910;SDS011;63555;49.920;17.868;2023-03-23T09:31:31;7.03;;;4.28;;
69910;SDS011;63555;49.920;17.868;2023-03-23T09:36:32;9.73;;;4.40;;
69910;SDS011;63555;49.920;17.868;2023-03-23T09:57:22;7.03;;;3.88;;
69910;SDS011;63555;49.920;17.868;2023-03-23T10:02:38;6.40;;;3.60;;
69910;SDS011;63555;49.920;17.868;2023-03-23T10:07:46;6.57;;;3.38;;
69910;SDS011;63555;49.920;17.868;2023-03-23T10:12:51;8.70;;;4.00;;
69910;SDS011;63555;49.920;17.868;2023-03-23T10:18:01;11.98;;;4.20;;
69910;SDS011;63555;49.920;17.868;2023-03-23T10:28:21;6.97;;;3.72;;
69910;SDS011;63555;49.920;17.868;2023-03-23T10:38:44;7.72;;;3.55;;
69910;SDS011;63555;49.920;17.868;2023-03-23T10:43:48;7.15;;;3.72;;
69910;SDS011;63555;49.920;17.868;2023-03-23T10:48:50;6.83;;;3.13;;
69910;SDS011;63555;49.920;17.868;2023-03-23T10:53:56;12.50;;;3.60;;
69910;SDS011;63555;49.920;17.868;2023-03-23T10:58:58;7.60;;;3.20;;
69910;SDS011;63555;49.920;17.868;2023-03-23T11:03:58;6.23;;;3.30;;
69910;SDS011;63555;49.920;17.868;2023-03-23T11:09:14;6.70;;;3.17;;
69910;SDS011;63555;49.920;17.868;2023-03-23T11:14:19;9.40;;;3.30;;
69910;SDS011;63555;49.920;17.868;2023-03-23T11:19:34;6.30;;;3.13;;
69910;SDS011;63555;49.920;17.868;2023-03-23T11:24:39;8.60;;;3.78;;
69910;SDS011;63555;49.920;17.868;2023-03-23T11:34:57;6.50;;;3.30;;
69910;SDS011;63555;49.920;17.868;2023-03-23T11:50:34;9.80;;;3.75;;
69910;SDS011;63555;49.920;17.868;2023-03-23T12:06:02;16.03;;;7.60;;
69910;SDS011;63555;49.920;17.868;2023-03-23T12:16:38;12.05;;;5.88;;
69910;SDS011;63555;49.920;17.868;2023-03-23T12:27:04;10.43;;;4.70;;
69910;SDS011;63555;49.920;17.868;2023-03-23T12:32:23;10.97;;;4.30;;
69910;SDS011;63555;49.920;17.868;2023-03-23T12:37:46;11.73;;;5.45;;
69910;SDS011;63555;49.920;17.868;2023-03-23T12:48:13;15.05;;;6.32;;
69910;SDS011;63555;49.920;17.868;2023-03-23T12:53:31;4.35;;;1.50;;
69910;SDS011;63555;49.920;17.868;2023-03-23T12:58:39;4.53;;;1.67;;
69910;SDS011;63555;49.920;17.868;2023-03-23T13:30:34;8.07;;;3.33;;
69910;SDS011;63555;49.920;17.868;2023-03-23T13:35:35;18.07;;;8.67;;
69910;SDS011;63555;49.920;17.868;2023-03-23T13:40:40;7.25;;;3.40;;
69910;SDS011;63555;49.920;17.868;2023-03-23T13:45:44;8.10;;;2.90;;
69910;SDS011;63555;49.920;17.868;2023-03-23T14:01:30;6.10;;;1.93;;
69910;SDS011;63555;49.920;17.868;2023-03-23T14:06:33;4.70;;;2.15;;
69910;SDS011;63555;49.920;17.868;2023-03-23T14:11:44;7.77;;;1.70;;
69910;SDS011;63555;49.920;17.868;2023-03-23T14:17:07;6.18;;;1.92;;
69910;SDS011;63555;49.920;17.868;2023-03-23T14:22:18;6.55;;;1.70;;
69910;SDS011;63555;49.920;17.868;2023-03-23T14:27:22;5.60;;;1.57;;
69910;SDS011;63555;49.920;17.868;2023-03-23T14:32:23;5.75;;;1.95;;
69910;SDS011;63555;49.920;17.868;2023-03-23T14:37:26;7.30;;;2.33;;
69910;SDS011;63555;49.920;17.868;2023-03-23T14:42:30;5.45;;;2.30;;
69910;SDS011;63555;49.920;17.868;2023-03-23T14:47:37;7.47;;;2.40;;
69910;SDS011;63555;49.920;17.868;2023-03-23T14:52:42;5.13;;;2.28;;
69910;SDS011;63555;49.920;17.868;2023-03-23T14:57:43;8.17;;;2.90;;
69910;SDS011;63555;49.920;17.868;2023-03-23T15:02:46;7.10;;;2.93;;
69910;SDS011;63555;49.920;17.868;2023-03-23T15:07:52;8.70;;;3.58;;
69910;SDS011;63555;49.920;17.868;2023-03-23T15:12:55;18.25;;;10.70;;
69910;SDS011;63555;49.920;17.868;2023-03-23T15:17:58;11.93;;;6.47;;
69910;SDS011;63555;49.920;17.868;2023-03-23T15:23:06;10.10;;;4.30;;
69910;SDS011;63555;49.920;17.868;2023-03-23T15:28:15;14.50;;;5.93;;
69910;SDS011;63555;49.920;17.868;2023-03-23T15:33:17;10.65;;;4.07;;
69910;SDS011;63555;49.920;17.868;2023-03-23T15:38:24;12.13;;;3.47;;
69910;SDS011;63555;49.920;17.868;2023-03-23T15:43:35;10.47;;;3.50;;
69910;SDS011;63555;49.920;17.868;2023-03-23T15:49:01;9.85;;;3.55;;
69910;SDS011;63555;49.920;17.868;2023-03-23T15:54:13;9.43;;;4.03;;
69910;SDS011;63555;49.920;17.868;2023-03-23T15:59:15;7.85;;;3.40;;
69910;SDS011;63555;49.920;17.868;2023-03-23T16:04:17;9.13;;;3.37;;
69910;SDS011;63555;49.920;17.868;2023-03-23T16:09:19;8.57;;;3.20;;
69910;SDS011;63555;49.920;17.868;2023-03-23T16:14:19;7.87;;;2.77;;
69910;SDS011;63555;49.920;17.868;2023-03-23T16:19:20;6.83;;;2.57;;
69910;SDS011;63555;49.920;17.868;2023-03-23T16:24:23;9.75;;;3.38;;
69910;SDS011;63555;49.920;17.868;2023-03-23T16:29:23;6.90;;;2.90;;
69910;SDS011;63555;49.920;17.868;2023-03-23T16:34:24;6.80;;;3.10;;
69910;SDS011;63555;49.920;17.868;2023-03-23T16:39:27;9.27;;;2.97;;
69910;SDS011;63555;49.920;17.868;2023-03-23T16:44:28;8.35;;;3.63;;
69910;SDS011;63555;49.920;17.868;2023-03-23T16:49:28;6.37;;;3.27;;
69910;SDS011;63555;49.920;17.868;2023-03-23T16:54:29;10.40;;;3.80;;
69910;SDS011;63555;49.920;17.868;2023-03-23T16:59:29;7.07;;;3.60;;
69910;SDS011;63555;49.920;17.868;2023-03-23T17:04:30;7.37;;;3.63;;
69910;SDS011;63555;49.920;17.868;2023-03-23T17:09:31;9.80;;;4.47;;
69910;SDS011;63555;49.920;17.868;2023-03-23T17:14:32;6.70;;;3.90;;
69910;SDS011;63555;49.920;17.868;2023-03-23T17:19:33;8.33;;;3.20;;
69910;SDS011;63555;49.920;17.868;2023-03-23T17:24:33;6.53;;;3.17;;
69910;SDS011;63555;49.920;17.868;2023-03-23T17:29:34;7.60;;;3.70;;
69910;SDS011;63555;49.920;17.868;2023-03-23T17:34:34;7.38;;;3.40;;
69910;SDS011;63555;49.920;17.868;2023-03-23T17:39:35;8.50;;;3.97;;
69910;SDS011;63555;49.920;17.868;2023-03-23T17:44:36;10.23;;;4.50;;
69910;SDS011;63555;49.920;17.868;2023-03-23T17:49:36;8.60;;;4.00;;
69910;SDS011;63555;49.920;17.868;2023-03-23T17:54:37;9.67;;;4.27;;
69910;SDS011;63555;49.920;17.868;2023-03-23T17:59:37;5.63;;;3.00;;
69910;SDS011;63555;49.920;17.868;2023-03-23T18:04:38;5.40;;;3.13;;
69910;SDS011;63555;49.920;17.868;2023-03-23T18:09:39;8.25;;;3.72;;
69910;SDS011;63555;49.920;17.868;2023-03-23T18:14:39;6.73;;;3.27;;
69910;SDS011;63555;49.920;17.868;2023-03-23T18:19:39;8.13;;;4.20;;
69910;SDS011;63555;49.920;17.868;2023-03-23T18:24:40;6.63;;;3.67;;
69910;SDS011;63555;49.920;17.868;2023-03-23T18:29:40;7.93;;;3.53;;
69910;SDS011;63555;49.920;17.868;2023-03-23T18:34:41;5.83;;;3.57;;
69910;SDS011;63555;49.920;17.868;2023-03-23T18:39:44;8.57;;;3.25;;
69910;SDS011;63555;49.920;17.868;2023-03-23T18:44:45;7.85;;;3.90;;
69910;SDS011;63555;49.920;17.868;2023-03-23T18:49:46;11.27;;;3.63;;
69910;SDS011;63555;49.920;17.868;2023-03-23T18:54:50;8.50;;;3.90;;
69910;SDS011;63555;49.920;17.868;2023-03-23T18:59:52;8.02;;;4.20;;
69910;SDS011;63555;49.920;17.868;2023-03-23T19:04:52;10.57;;;4.20;;
69910;SDS011;63555;49.920;17.868;2023-03-23T19:09:52;8.00;;;4.23;;
69910;SDS011;63555;49.920;17.868;2023-03-23T19:14:54;8.07;;;4.22;;
69910;SDS011;63555;49.920;17.868;2023-03-23T19:19:54;8.07;;;4.13;;
69910;SDS011;63555;49.920;17.868;2023-03-23T19:24:56;11.57;;;4.20;;
69910;SDS011;63555;49.920;17.868;2023-03-23T19:29:56;10.15;;;4.38;;
69910;SDS011;63555;49.920;17.868;2023-03-23T19:34:56;9.10;;;5.18;;
69910;SDS011;63555;49.920;17.868;2023-03-23T19:39:57;9.82;;;4.47;;
69910;SDS011;63555;49.920;17.868;2023-03-23T19:44:58;7.23;;;3.67;;
69910;SDS011;63555;49.920;17.868;2023-03-23T19:49:58;7.73;;;4.17;;
69910;SDS011;63555;49.920;17.868;2023-03-23T19:54:59;13.98;;;4.50;;
69910;SDS011;63555;49.920;17.868;2023-03-23T20:00:00;8.20;;;4.30;;
69910;SDS011;63555;49.920;17.868;2023-03-23T20:05:00;9.40;;;4.60;;
69910;SDS011;63555;49.920;17.868;2023-03-23T20:10:01;7.43;;;3.97;;
69910;SDS011;63555;49.920;17.868;2023-03-23T20:15:01;7.47;;;3.97;;
69910;SDS011;63555;49.920;17.868;2023-03-23T20:20:03;6.53;;;3.53;;
69910;SDS011;63555;49.920;17.868;2023-03-23T20:25:07;7.30;;;4.07;;
69910;SDS011;63555;49.920;17.868;2023-03-23T20:30:08;12.82;;;4.75;;
69910;SDS011;63555;49.920;17.868;2023-03-23T20:35:09;9.40;;;5.27;;
69910;SDS011;63555;49.920;17.868;2023-03-23T20:40:11;10.20;;;4.72;;
69910;SDS011;63555;49.920;17.868;2023-03-23T20:45:14;9.37;;;4.60;;
69910;SDS011;63555;49.920;17.868;2023-03-23T20:50:15;15.05;;;5.28;;
69910;SDS011;63555;49.920;17.868;2023-03-23T20:55:15;13.30;;;5.43;;
69910;SDS011;63555;49.920;17.868;2023-03-23T21:00:15;8.60;;;3.60;;
69910;SDS011;63555;49.920;17.868;2023-03-23T21:05:16;10.02;;;3.60;;
69910;SDS011;63555;49.920;17.868;2023-03-23T21:10:17;7.45;;;3.42;;
69910;SDS011;63555;49.920;17.868;2023-03-23T21:15:21;6.72;;;3.03;;
69910;SDS011;63555;49.920;17.868;2023-03-23T21:20:22;5.97;;;3.33;;
69910;SDS011;63555;49.920;17.868;2023-03-23T21:25:23;5.63;;;2.92;;
69910;SDS011;63555;49.920;17.868;2023-03-23T21:30:23;8.10;;;2.67;;
69910;SDS011;63555;49.920;17.868;2023-03-23T21:35:24;7.97;;;2.63;;
69910;SDS011;63555;49.920;17.868;2023-03-23T21:40:24;5.80;;;1.87;;
69910;SDS011;63555;49.920;17.868;2023-03-23T21:45:25;4.27;;;1.93;;
69910;SDS011;63555;49.920;17.868;2023-03-23T21:50:25;5.38;;;1.73;;
69910;SDS011;63555;49.920;17.868;2023-03-23T21:55:26;3.97;;;1.60;;
69910;SDS011;63555;49.920;17.868;2023-03-23T22:00:28;5.43;;;1.63;;
69910;SDS011;63555;49.920;17.868;2023-03-23T22:05:29;4.20;;;1.63;;
69910;SDS011;63555;49.920;17.868;2023-03-23T22:10:29;4.45;;;1.40;;
69910;SDS011;63555;49.920;17.868;2023-03-23T22:15:30;3.97;;;1.30;;
69910;SDS011;63555;49.920;17.868;2023-03-23T22:20:30;7.07;;;1.70;;
69910;SDS011;63555;49.920;17.868;2023-03-23T22:25:31;3.50;;;1.70;;
69910;SDS011;63555;49.920;17.868;2023-03-23T22:30:33;3.72;;;1.50;;
69910;SDS011;63555;49.920;17.868;2023-03-23T22:35:34;3.13;;;1.40;;
69910;SDS011;63555;49.920;17.868;2023-03-23T22:40:34;4.33;;;1.40;;
69910;SDS011;63555;49.920;17.868;2023-03-23T22:45:35;5.80;;;1.60;;
69910;SDS011;63555;49.920;17.868;2023-03-23T22:50:35;3.20;;;1.63;;
69910;SDS011;63555;49.920;17.868;2023-03-23T22:55:39;2.67;;;1.10;;
69910;SDS011;63555;49.920;17.868;2023-03-23T23:00:47;3.42;;;1.30;;
69910;SDS011;63555;49.920;17.868;2023-03-23T23:05:49;4.18;;;1.40;;
69910;SDS011;63555;49.920;17.868;2023-03-23T23:10:51;3.55;;;1.15;;
69910;SDS011;63555;49.920;17.868;2023-03-23T23:15:54;2.77;;;1.10;;
69910;SDS011;63555;49.920;17.868;2023-03-23T23:20:57;6.95;;;1.60;;
69910;SDS011;63555;49.920;17.868;2023-03-23T23:26:00;3.97;;;1.38;;
69910;SDS011;63555;49.920;17.868;2023-03-23T23:31:01;5.03;;;1.52;;
69910;SDS011;63555;49.920;17.868;2023-03-23T23:36:02;4.38;;;1.70;;
69910;SDS011;63555;49.920;17.868;2023-03-23T23:41:03;3.30;;;1.47;;
69910;SDS011;63555;49.920;17.868;2023-03-23T23:46:04;2.85;;;1.20;;
69910;SDS011;63555;49.920;17.868;2023-03-23T23:51:06;6.30;;;1.90;;
69910;SDS011;63555;49.920;17.868;2023-03-23T23:56:07;5.50;;;2.10;;
